Time;durP1;ratioP1;P1;durP2;ratioP2;P2;SDS_P1;SDS_P2;PMS_P1;PMS_P2;Temp;Humidity;BMP_temperature;BMP_pressure;BME280_temperature;BME280_humidity;BME280_pressure;Samples;Min_cycle;Max_cycle;Signal;HPM_P1;HPM_P2
2023/03/05 00:00:47;;;;;;;29.30;10.90;;;;;;;5.26;90.97;100158.97;12204937;19;20006;-83
2023/03/05 00:04:49;;;;;;;30.60;12.10;;;;;;;5.24;91.17;100145.53;12179849;19;21186;-84
2023/03/05 00:08:52;;;;;;;32.17;11.32;;;;;;;5.21;91.62;100145.09;12203438;19;20110;-84
2023/03/05 00:12:53;;;;;;;;;;;;;;;5.17;91.61;100141.06;12200146;19;20009;-84
2023/03/05 00:16:55;;;;;;;26.77;10.80;;;;;;;5.17;91.44;100146.53;12178755;19;19935;-83
2023/03/05 00:20:57;;;;;;;24.58;10.93;;;;;;;5.16;91.56;100147.59;12194215;19;20007;-81
2023/03/05 00:24:58;;;;;;;31.30;11.35;;;;;;;5.16;92.31;100148.44;12195509;19;20011;-82
2023/03/05 00:29:00;;;;;;;27.35;10.90;;;;;;;5.12;92.27;100141.72;12176566;19;20023;-82
2023/03/05 00:33:02;;;;;;;29.75;10.90;;;;;;;5.11;92.65;100137.28;12193209;19;20684;-81
2023/03/05 00:37:05;;;;;;;26.60;10.70;;;;;;;5.12;92.65;100138.16;12196696;19;20023;-82
2023/03/05 00:41:07;;;;;;;30.33;11.90;;;;;;;5.13;93.13;100134.34;12217374;19;20029;-81
2023/03/05 00:45:10;;;;;;;26.98;10.52;;;;;;;5.13;93.32;100134.34;12236779;19;20371;-83
2023/03/05 00:49:11;;;;;;;28.75;10.65;;;;;;;5.09;93.47;100130.38;12206550;19;20094;-83
2023/03/05 00:53:13;;;;;;;26.60;11.25;;;;;;;5.11;93.78;100128.25;12175007;19;20820;-83
2023/03/05 00:57:15;;;;;;;27.55;10.95;;;;;;;5.10;94.00;100126.56;12199543;19;20076;-82
2023/03/05 01:01:16;;;;;;;25.50;11.00;;;;;;;5.12;94.42;100116.28;12178188;19;20002;-83
2023/03/05 01:05:18;;;;;;;26.85;12.27;;;;;;;5.10;93.92;100123.84;12196047;19;20593;-83
2023/03/05 01:09:20;;;;;;;28.60;10.68;;;;;;;5.07;94.40;100116.91;12198652;19;20015;-83
2023/03/05 01:13:22;;;;;;;29.93;10.53;;;;;;;5.07;94.67;100105.13;12172324;19;20493;-83
2023/03/05 01:17:24;;;;;;;31.60;11.48;;;;;;;5.07;94.70;100102.41;12196873;19;20003;-82
2023/03/05 01:21:25;;;;;;;30.80;11.73;;;;;;;5.04;94.80;100106.38;12208705;19;20034;-81
2023/03/05 01:25:27;;;;;;;23.63;10.53;;;;;;;5.03;95.00;100105.56;12206946;19;19999;-83
2023/03/05 01:29:29;;;;;;;28.05;10.88;;;;;;;5.02;95.08;100092.91;12213384;19;20007;-83
2023/03/05 01:33:31;;;;;;;25.40;10.32;;;;;;;5.04;95.21;100090.00;12211545;19;20471;-81
2023/03/05 01:37:33;;;;;;;28.45;11.82;;;;;;;5.05;95.48;100085.38;12204448;19;20051;-82
2023/03/05 01:41:35;;;;;;;27.17;12.48;;;;;;;5.02;95.43;100076.53;12222607;19;20034;-83
2023/03/05 01:45:38;;;;;;;29.55;11.55;;;;;;;5.01;95.40;100080.31;12207903;19;20074;-82
2023/03/05 01:49:40;;;;;;;26.63;11.18;;;;;;;4.98;95.85;100082.63;12187020;19;20007;-82
2023/03/05 01:53:42;;;;;;;30.67;11.82;;;;;;;4.99;95.96;100081.56;12202522;19;20610;-82
2023/03/05 01:57:54;;;;;;;32.30;12.48;;;;;;;4.97;95.93;100070.03;12200144;19;20007;-83
2023/03/05 02:01:57;;;;;;;26.15;11.27;;;;;;;4.96;95.94;100071.91;12182048;19;20007;-82
2023/03/05 02:05:59;;;;;;;32.42;12.05;;;;;;;4.94;96.24;100062.25;12203969;19;20492;-81
2023/03/05 02:10:13;;;;;;;28.83;11.30;;;;;;;4.90;96.85;100059.06;12203545;19;20370;-82
2023/03/05 02:14:15;;;;;;;30.40;12.18;;;;;;;4.88;97.04;100058.47;12180298;19;20034;-82
2023/03/05 02:18:18;;;;;;;32.42;11.90;;;;;;;4.88;97.22;100050.28;12203632;19;20405;-81
2023/03/05 02:22:22;;;;;;;33.03;13.13;;;;;;;4.90;97.63;100050.03;12179720;19;20018;-82
2023/03/05 02:26:25;;;;;;;28.83;10.45;;;;;;;4.90;97.30;100061.81;12202503;19;20010;-82
2023/03/05 02:30:27;;;;;;;28.95;11.73;;;;;;;4.83;98.17;100051.94;12200889;19;20831;-82
2023/03/05 02:34:29;;;;;;;25.63;10.48;;;;;;;4.81;98.21;100052.13;12180963;19;19999;-82
2023/03/05 02:38:31;;;;;;;32.43;12.20;;;;;;;4.77;98.29;100040.78;12202078;19;20064;-82
2023/03/05 02:42:34;;;;;;;31.47;11.33;;;;;;;4.77;98.66;100043.50;12202648;19;20017;-82
2023/03/05 02:46:35;;;;;;;25.63;11.35;;;;;;;4.79;98.70;100037.88;12178222;19;20543;-83
2023/03/05 02:50:39;;;;;;;27.90;10.90;;;;;;;4.74;99.16;100029.44;12202530;19;20010;-83
2023/03/05 02:54:42;;;;;;;30.27;11.63;;;;;;;4.72;99.65;100031.53;12198028;19;20031;-83
2023/03/05 02:58:43;;;;;;;29.75;11.50;;;;;;;4.72;99.10;100026.91;12180929;19;20015;-82
2023/03/05 03:02:45;;;;;;;31.67;11.65;;;;;;;4.72;99.33;100012.41;12197339;19;20003;-82
2023/03/05 03:06:47;;;;;;;32.65;11.45;;;;;;;4.71;99.55;100014.31;12200842;19;20007;-82
2023/03/05 03:10:48;;;;;;;31.48;12.05;;;;;;;4.68;99.65;100006.53;12175995;19;20035;-82
2023/03/05 03:14:50;;;;;;;31.15;11.52;;;;;;;4.69;99.28;100010.09;12198069;19;20024;-83
2023/03/05 03:18:52;;;;;;;28.83;11.95;;;;;;;4.67;99.54;100006.72;12202175;19;20026;-83
2023/03/05 03:22:54;;;;;;;28.77;11.80;;;;;;;4.64;100.00;99999.81;12176225;19;20006;-83
2023/03/05 03:26:55;;;;;;;28.30;12.73;;;;;;;4.63;99.77;99994.56;12202037;19;20006;-82
2023/03/05 03:30:57;;;;;;;21.98;8.63;;;;;;;4.56;99.47;99992.66;12197563;19;20011;-82
2023/03/05 03:34:59;;;;;;;24.50;10.63;;;;;;;4.53;99.14;99998.53;12167325;19;20027;-82
2023/03/05 03:39:00;;;;;;;22.60;10.47;;;;;;;4.50;98.98;99992.66;12194650;19;20007;-82
2023/03/05 03:43:02;;;;;;;32.20;10.90;;;;;;;4.56;99.04;99989.09;12197411;19;19998;-81
2023/03/05 03:47:04;;;;;;;28.67;10.50;;;;;;;4.59;99.64;99985.09;12171426;19;20014;-82
2023/03/05 03:51:06;;;;;;;26.48;10.15;;;;;;;4.59;100.00;99983.22;12192148;19;20010;-81
2023/03/05 03:55:08;;;;;;;25.08;10.23;;;;;;;4.57;100.00;99972.50;12194775;19;20006;-81
2023/03/05 03:59:11;;;;;;;19.60;8.15;;;;;;;4.43;98.78;99970.81;12173761;19;20406;-83
2023/03/05 04:03:13;;;;;;;24.48;10.02;;;;;;;4.41;99.37;99970.16;12197716;19;20006;-83
2023/03/05 04:07:14;;;;;;;21.35;9.45;;;;;;;4.47;99.93;99965.78;12176613;19;20002;-81
2023/03/05 04:11:18;;;;;;;21.20;8.68;;;;;;;4.52;100.00;99955.06;12200642;19;20014;-82
2023/03/05 04:15:20;;;;;;;24.40;8.75;;;;;;;4.54;99.73;99953.81;12197601;19;20706;-83
2023/03/05 04:19:21;;;;;;;20.85;9.48;;;;;;;4.52;99.51;99945.00;12178199;19;20003;-82
2023/03/05 04:23:23;;;;;;;27.58;9.18;;;;;;;4.50;99.10;99951.72;12193399;19;20378;-82
2023/03/05 04:27:24;;;;;;;32.40;10.15;;;;;;;4.43;99.06;99951.72;12194407;19;20011;-82
2023/03/05 04:31:26;;;;;;;24.35;10.10;;;;;;;4.42;100.00;99954.63;12176261;19;20003;-81
2023/03/05 04:35:28;;;;;;;21.98;9.27;;;;;;;4.46;100.00;99954.03;12193716;19;20002;-83
2023/03/05 04:39:29;;;;;;;25.17;8.82;;;;;;;4.45;100.00;99952.31;12203002;19;20007;-82
2023/03/05 04:43:31;;;;;;;22.80;9.85;;;;;;;4.46;100.00;99955.88;12179060;19;20023;-82
2023/03/05 04:47:33;;;;;;;22.23;9.32;;;;;;;4.46;100.00;99945.84;12202611;19;20010;-82
2023/03/05 04:51:35;;;;;;;24.10;9.60;;;;;;;4.46;100.00;99945.84;12205615;19;20445;-83
2023/03/05 04:55:36;;;;;;;19.85;9.52;;;;;;;4.46;100.00;99953.16;12189128;19;20780;-81
2023/03/05 04:59:38;;;;;;;21.45;9.52;;;;;;;4.43;100.00;99946.25;12267306;19;19995;-80
2023/03/05 05:03:39;;;;;;;19.40;8.00;;;;;;;4.44;100.00;99939.72;12256472;19;20023;-82
2023/03/05 05:07:41;;;;;;;28.73;10.60;;;;;;;4.43;100.00;99948.97;12182575;19;20018;-82
2023/03/05 05:11:43;;;;;;;22.60;8.50;;;;;;;4.35;99.77;99949.16;12208028;19;20006;-82
2023/03/05 05:15:44;;;;;;;24.45;9.40;;;;;;;4.34;100.00;99942.00;12204399;19;20002;-82
2023/03/05 05:19:46;;;;;;;22.73;8.77;;;;;;;4.35;100.00;99943.69;12217087;19;20107;-82
2023/03/05 05:23:47;;;;;;;24.55;9.07;;;;;;;4.37;100.00;99935.28;12248348;19;20125;-82
2023/03/05 05:27:49;;;;;;;19.40;9.32;;;;;;;4.36;100.00;99931.72;12211289;19;20039;-83
2023/03/05 05:31:52;;;;;;;19.77;8.38;;;;;;;4.39;100.00;99938.66;12188404;19;20034;-82
2023/03/05 05:35:54;;;;;;;24.98;8.55;;;;;;;4.44;99.91;99942.47;12209799;19;20013;-82
2023/03/05 05:39:56;;;;;;;17.23;7.72;;;;;;;4.47;99.74;99936.59;12209181;19;20010;-81
2023/03/05 05:43:57;;;;;;;22.92;9.00;;;;;;;4.50;99.40;99935.34;12185984;19;20026;-81
2023/03/05 05:48:00;;;;;;;18.95;8.15;;;;;;;4.46;99.49;99943.09;12209282;19;20857;-82
2023/03/05 05:52:01;;;;;;;23.83;8.53;;;;;;;4.46;99.51;99934.91;12204715;19;20010;-82
2023/03/05 05:56:04;;;;;;;22.42;9.43;;;;;;;4.42;99.79;99933.63;12205808;19;20597;-83
2023/03/05 06:00:09;;;;;;;25.45;10.32;;;;;;;4.39;99.78;99939.50;12213434;19;20003;-82
2023/03/05 06:04:15;;;;;;;24.92;10.95;;;;;;;4.37;100.00;99935.28;12187632;19;20014;-83
2023/03/05 06:08:17;;;;;;;29.20;11.02;;;;;;;4.38;100.00;99918.72;12210806;19;20006;-83
2023/03/05 06:12:18;;;;;;;29.77;10.20;;;;;;;4.40;100.00;99924.81;12211505;19;20030;-82
2023/03/05 06:16:22;;;;;;;27.92;10.57;;;;;;;4.41;100.00;99923.78;12183877;19;20006;-82
2023/03/05 06:20:24;;;;;;;27.00;10.55;;;;;;;4.40;100.00;99924.81;12205901;19;20031;-82
2023/03/05 06:24:26;;;;;;;26.60;10.77;;;;;;;4.41;100.00;99925.66;12204647;19;20894;-82
2023/03/05 06:28:28;;;;;;;26.40;11.93;;;;;;;4.41;100.00;99926.50;12181801;19;20014;-82
2023/03/05 06:32:30;;;;;;;27.77;11.80;;;;;;;4.42;100.00;99922.72;12202311;19;20031;-81
2023/03/05 06:36:32;;;;;;;32.38;12.18;;;;;;;4.46;100.00;99929.47;12199869;19;20016;-81
2023/03/05 06:40:34;;;;;;;32.22;11.43;;;;;;;4.51;100.00;99917.91;12180268;19;20012;-82
2023/03/05 06:44:40;;;;;;;31.17;11.55;;;;;;;4.52;100.00;99928.63;12202993;19;20010;-81
2023/03/05 06:48:42;;;;;;;28.52;13.02;;;;;;;4.53;100.00;99919.38;12203357;19;20098;-82
2023/03/05 06:52:43;;;;;;;29.93;12.17;;;;;;;4.52;100.00;99911.38;12178717;19;20007;-82
2023/03/05 06:56:46;;;;;;;29.83;12.43;;;;;;;4.53;100.00;99921.28;12205699;19;20010;-83
2023/03/05 07:00:47;;;;;;;27.08;12.15;;;;;;;4.55;100.00;99922.75;12206120;19;20452;-82
2023/03/05 07:04:49;;;;;;;32.65;11.63;;;;;;;4.63;100.00;99927.16;12183586;19;20021;-82
2023/03/05 07:08:54;;;;;;;22.15;11.20;;;;;;;4.75;100.00;99916.47;12205737;19;20035;-82
2023/03/05 07:12:56;;;;;;;25.05;11.55;;;;;;;4.84;100.00;99917.94;12203872;19;20010;-83
2023/03/05 07:16:58;;;;;;;26.67;11.88;;;;;;;4.93;100.00;99919.41;12182828;19;20380;-83
2023/03/05 07:21:04;;;;;;;28.58;12.63;;;;;;;4.99;100.00;99917.72;12204034;19;20066;-82
2023/03/05 07:25:06;;;;;;;24.25;11.15;;;;;;;5.03;100.00;99919.00;12203983;19;20026;-82
2023/03/05 07:29:08;;;;;;;22.35;9.02;;;;;;;5.06;100.00;99918.56;12182559;19;20483;-83
2023/03/05 07:33:10;;;;;;;25.40;10.30;;;;;;;5.13;99.58;99921.28;12200862;19;20022;-83
2023/03/05 07:37:12;;;;;;;30.88;12.02;;;;;;;5.15;99.39;99919.19;12201695;19;20005;-82
2023/03/05 07:41:22;;;;;;;29.48;11.05;;;;;;;5.16;99.36;99918.13;12181734;19;20006;-82
2023/03/05 07:45:23;;;;;;;31.95;12.68;;;;;;;5.20;98.57;99909.28;12198635;19;20006;-81
2023/03/05 07:49:25;;;;;;;28.45;12.13;;;;;;;5.06;99.32;99917.69;12180624;19;20033;-81
2023/03/05 07:53:27;;;;;;;30.45;11.77;;;;;;;5.07;99.99;99928.44;12197570;19;20013;-81
2023/03/05 07:57:28;;;;;;;25.70;10.05;;;;;;;5.16;99.77;99929.06;12202403;19;20010;-84
2023/03/05 08:01:30;;;;;;;20.88;9.30;;;;;;;5.14;99.33;99928.41;12182303;19;20623;-81
2023/03/05 08:05:32;;;;;;;28.90;11.30;;;;;;;5.10;99.74;99932.63;12206268;19;20035;-80
2023/03/05 08:09:34;;;;;;;24.92;10.70;;;;;;;5.17;99.72;99922.53;12207097;19;20006;-82
2023/03/05 08:13:36;;;;;;;26.87;11.17;;;;;;;5.22;99.43;99918.13;12195075;19;20483;-83
2023/03/05 08:17:37;;;;;;;21.20;9.20;;;;;;;5.33;98.88;99922.09;12216078;19;20030;-83
2023/03/05 08:21:42;;;;;;;20.13;9.52;;;;;;;5.52;98.74;99912.16;12229313;19;20021;-82
2023/03/05 08:25:43;;;;;;;22.85;9.05;;;;;;;5.66;97.35;99902.03;12192850;19;20005;-83
2023/03/05 08:29:45;;;;;;;19.55;7.93;;;;;;;5.86;95.42;99901.94;12203547;19;20023;-83
2023/03/05 08:33:49;;;;;;;21.57;9.20;;;;;;;5.96;95.17;99896.91;12209787;19;20593;-84
2023/03/05 08:37:50;;;;;;;22.02;8.07;;;;;;;6.08;93.95;99902.53;12194638;19;20091;-83
2023/03/05 08:41:52;;;;;;;19.27;7.70;;;;;;;6.19;91.52;99896.38;12209643;19;20002;-84
2023/03/05 08:45:54;;;;;;;18.73;6.50;;;;;;;6.18;90.85;99897.41;12167867;19;20010;-83
2023/03/05 08:49:57;;;;;;;18.95;6.72;;;;;;;6.31;89.62;99888.31;12171643;19;20108;-83
2023/03/05 08:54:00;;;;;;;17.17;7.20;;;;;;;6.34;86.95;99894.16;12202977;19;20010;-82
2023/03/05 08:58:02;;;;;;;17.27;6.97;;;;;;;6.32;86.83;99888.06;12202544;19;20017;-82
2023/03/05 09:02:04;;;;;;;13.53;5.10;;;;;;;6.30;84.97;99889.34;12179834;19;20035;-83
2023/03/05 09:06:08;;;;;;;16.80;5.93;;;;;;;6.29;83.98;99890.41;12205755;19;20023;-83
2023/03/05 09:10:12;;;;;;;15.02;6.10;;;;;;;6.27;83.63;99892.53;12203018;19;20068;-84
2023/03/05 09:14:14;;;;;;;15.07;6.78;;;;;;;6.34;83.05;99880.47;12179045;19;20010;-83
2023/03/05 09:18:15;;;;;;;11.25;5.68;;;;;;;6.38;79.87;99878.13;12198039;19;20022;-84
2023/03/05 09:22:17;;;;;;;13.57;5.90;;;;;;;6.37;80.08;99879.22;12180649;19;20020;-84
2023/03/05 09:26:19;;;;;;;12.73;5.07;;;;;;;6.35;78.57;99882.16;12204828;19;20493;-83
2023/03/05 09:30:21;;;;;;;15.23;5.40;;;;;;;6.34;77.98;99875.00;12206532;19;20022;-82
2023/03/05 09:34:22;;;;;;;12.75;4.47;;;;;;;6.30;76.46;99871.03;12181916;19;20015;-83
2023/03/05 09:38:24;;;;;;;11.85;5.68;;;;;;;6.35;76.26;99870.38;12203928;19;20455;-82
2023/03/05 09:42:44;;;;;;;10.97;4.47;;;;;;;6.53;77.03;99866.88;12206575;19;20631;-83
2023/03/05 09:47:15;;;;;;;12.90;5.00;;;;;;;6.71;75.92;99863.38;12183192;19;20050;-82
2023/03/05 09:51:23;;;;;;;11.38;5.03;;;;;;;6.67;74.93;99857.50;12199051;19;20075;-82
2023/03/05 09:55:41;;;;;;;12.27;4.65;;;;;;;6.71;72.76;99855.16;12185683;19;20003;-82
2023/03/05 09:59:53;;;;;;;12.98;5.13;;;;;;;6.94;72.68;99851.78;12225885;19;20003;-83
2023/03/05 10:03:59;;;;;;;9.45;4.78;;;;;;;6.96;67.60;99847.78;12263163;19;20043;-78
2023/03/05 10:08:04;;;;;;;11.43;4.32;;;;;;;6.88;68.93;99836.25;12208207;19;20017;-86
2023/03/05 10:12:19;;;;;;;6.70;3.40;;;;;;;6.89;70.91;99840.66;12221090;19;20011;-83
2023/03/05 10:16:51;;;;;;;10.23;4.82;;;;;;;7.05;69.78;99826.41;12195175;19;20039;-83
2023/03/05 10:20:57;;;;;;;9.00;4.47;;;;;;;7.16;70.25;99831.09;12214685;19;20433;-83
2023/03/05 10:25:47;;;;;;;10.65;4.65;;;;;;;7.26;69.59;99825.13;12213371;19;20006;-84
2023/03/05 10:30:42;;;;;;;10.95;4.05;;;;;;;7.28;67.87;99814.75;12223223;19;20011;-82
2023/03/05 10:34:47;;;;;;;11.05;4.55;;;;;;;7.22;68.32;99812.91;12205909;19;20037;-82
2023/03/05 10:39:00;;;;;;;10.48;3.85;;;;;;;7.30;65.17;99809.88;12212321;19;20002;-84
2023/03/05 10:43:40;;;;;;;8.02;4.00;;;;;;;7.31;66.47;99808.81;12213024;19;20035;-85
2023/03/05 10:47:49;;;;;;;10.32;4.47;;;;;;;7.37;61.99;99805.16;12196927;19;20011;-85
2023/03/05 10:52:04;;;;;;;8.73;4.05;;;;;;;7.31;63.16;99801.41;12264646;19;20011;-83
2023/03/05 10:56:11;;;;;;;10.10;3.72;;;;;;;7.22;62.14;99794.56;12245345;19;19994;-85
2023/03/05 11:00:21;;;;;;;8.55;4.40;;;;;;;7.10;63.59;99796.41;12235472;19;20017;-80
2023/03/05 11:04:26;;;;;;;6.57;3.35;;;;;;;7.07;63.48;99785.88;12205242;19;20010;-83
2023/03/05 11:08:35;;;;;;;8.32;3.45;;;;;;;7.02;63.44;99786.59;12228601;19;20067;-82
2023/03/05 11:12:37;;;;;;;10.13;4.45;;;;;;;7.11;63.16;99786.25;12223054;19;20017;-84
2023/03/05 11:16:47;;;;;;;9.15;3.13;;;;;;;7.10;61.78;99782.69;12200889;19;20027;-84
2023/03/05 11:20:49;;;;;;;5.72;2.88;;;;;;;7.06;62.21;99770.53;12223498;19;20006;-84
2023/03/05 11:25:17;;;;;;;6.90;2.87;;;;;;;7.18;61.26;99773.34;12222193;19;20007;-84
2023/03/05 11:29:29;;;;;;;6.18;2.60;;;;;;;7.11;60.10;99767.94;12206473;19;20038;-83
2023/03/05 11:33:31;;;;;;;6.75;2.90;;;;;;;7.24;60.27;99766.94;12232926;19;20074;-85
2023/03/05 11:37:32;;;;;;;5.38;1.98;;;;;;;7.30;57.81;99755.06;12234817;19;20051;-80
2023/03/05 11:41:44;;;;;;;7.13;2.40;;;;;;;7.18;58.67;99755.00;12262388;19;20002;-84
2023/03/05 11:45:50;;;;;;;7.20;2.70;;;;;;;7.34;57.71;99744.47;12259127;19;20027;-84
2023/03/05 11:49:59;;;;;;;4.93;2.28;;;;;;;7.34;58.59;99745.31;12228384;19;20007;-84
2023/03/05 11:54:07;;;;;;;5.80;2.35;;;;;;;7.35;58.14;99740.66;12217480;19;20003;-81
2023/03/05 11:58:38;;;;;;;6.03;2.67;;;;;;;7.33;58.15;99734.59;12215705;19;20010;-83
2023/03/05 12:02:40;;;;;;;9.63;2.78;;;;;;;7.22;58.58;99728.78;12180219;19;20487;-83
2023/03/05 12:06:47;;;;;;;6.00;1.90;;;;;;;7.18;58.47;99724.84;12217793;19;20007;-85
2023/03/05 12:10:48;;;;;;;9.80;2.75;;;;;;;7.14;58.58;99718.16;12191083;19;20003;-84
2023/03/05 12:14:53;;;;;;;5.35;2.45;;;;;;;7.04;59.95;99712.38;12208866;19;20002;-84
2023/03/05 12:19:18;;;;;;;10.13;3.13;;;;;;;7.02;60.81;99704.41;12210787;19;20010;-85
2023/03/05 12:23:21;;;;;;;7.53;3.22;;;;;;;6.89;61.91;99700.97;12185451;19;20013;-84
2023/03/05 12:27:35;;;;;;;8.38;3.35;;;;;;;6.85;62.05;99697.84;12207401;19;20011;-82
2023/03/05 12:31:38;;;;;;;8.23;3.78;;;;;;;6.99;62.30;99693.03;12189959;19;20014;-83
2023/03/05 12:35:40;;;;;;;;;;;;;;;7.00;63.44;99690.09;12207338;19;20010;-85
2023/03/05 12:39:46;;;;;;;9.63;3.55;;;;;;;7.29;63.03;99682.97;12204681;19;20016;-84
2023/03/05 12:44:06;;;;;;;7.70;2.78;;;;;;;7.44;61.91;99676.25;12180293;19;20002;-83
2023/03/05 12:48:10;;;;;;;7.85;2.63;;;;;;;7.52;61.22;99664.91;12219053;19;20014;-85
2023/03/05 12:52:22;;;;;;;8.90;3.33;;;;;;;7.47;61.13;99651.94;12231421;19;20014;-85
2023/03/05 12:56:30;;;;;;;9.35;2.88;;;;;;;7.60;61.13;99648.13;12194820;19;19999;-88
2023/03/05 13:00:43;;;;;;;6.13;2.30;;;;;;;7.70;60.45;99642.94;12238373;19;20609;-84
2023/03/05 13:04:45;;;;;;;7.03;2.35;;;;;;;8.05;60.90;99638.56;12211502;19;20046;-84
2023/03/05 13:08:55;;;;;;;8.70;3.33;;;;;;;8.52;58.40;99638.59;12230168;19;20011;-83
2023/03/05 13:12:57;;;;;;;7.68;3.10;;;;;;;8.59;56.61;99625.53;12246120;19;20058;-87
2023/03/05 13:16:59;;;;;;;8.27;3.13;;;;;;;8.57;57.90;99623.06;12212571;19;20013;-81
2023/03/05 13:21:05;;;;;;;9.90;3.42;;;;;;;8.74;56.09;99627.78;12213464;19;20283;-82
2023/03/05 13:25:19;;;;;;;8.25;3.55;;;;;;;8.50;56.44;99616.84;12207749;19;20014;-81
2023/03/05 13:29:25;;;;;;;7.82;3.10;;;;;;;8.63;56.97;99608.34;12186789;19;20100;-82
2023/03/05 13:33:34;;;;;;;8.70;2.97;;;;;;;8.69;56.46;99605.72;12211658;19;20024;-83
2023/03/05 13:37:36;;;;;;;6.72;2.53;;;;;;;8.60;55.79;99608.00;12209495;19;20013;-85
2023/03/05 13:41:38;;;;;;;4.55;2.58;;;;;;;8.44;54.93;99604.06;12245041;19;20030;-83
2023/03/05 13:45:42;;;;;;;8.43;2.63;;;;;;;8.25;55.55;99599.78;12255631;19;19999;-82
2023/03/05 13:49:46;;;;;;;7.18;2.53;;;;;;;8.06;55.96;99601.78;12229014;19;20006;-83
2023/03/05 13:53:49;;;;;;;5.13;2.30;;;;;;;7.95;56.90;99587.84;12256820;19;20037;-85
2023/03/05 13:57:54;;;;;;;4.68;2.40;;;;;;;7.83;56.54;99589.75;12248075;19;20002;-84
2023/03/05 14:01:58;;;;;;;6.32;2.03;;;;;;;7.69;57.19;99571.84;12230695;19;19999;-84
2023/03/05 14:06:04;;;;;;;7.03;2.85;;;;;;;7.65;57.61;99579.72;12253129;19;20050;-83
2023/03/05 14:10:42;;;;;;;6.15;2.50;;;;;;;7.53;58.30;99576.97;12252702;19;20014;-83
2023/03/05 14:14:44;;;;;;;6.28;2.42;;;;;;;7.37;58.11;99569.41;12120164;19;2004456;-84
2023/03/05 14:18:55;;;;;;;6.47;2.40;;;;;;;7.19;58.03;99561.25;12219343;19;20007;-82
2023/03/05 14:22:59;;;;;;;5.20;2.42;;;;;;;7.10;59.05;99547.06;12191413;19;20069;-84
2023/03/05 14:27:12;;;;;;;4.90;2.35;;;;;;;6.98;58.57;99548.91;12217134;19;20074;-82
2023/03/05 14:31:16;;;;;;;5.43;2.45;;;;;;;6.99;59.93;99542.34;12202871;19;20022;-82
2023/03/05 14:35:22;;;;;;;7.50;2.10;;;;;;;7.19;59.28;99540.16;12212727;19;20007;-82
2023/03/05 14:39:42;;;;;;;4.88;1.80;;;;;;;7.32;58.10;99519.94;12215755;19;20013;-83
2023/03/05 14:43:47;;;;;;;;;;;;;;;7.45;57.32;99514.25;12192693;19;20014;-82
2023/03/05 14:47:49;;;;;;;4.50;1.55;;;;;;;7.52;56.90;99508.63;12256686;19;19914;-83
2023/03/05 14:51:51;;;;;;;5.25;1.67;;;;;;;7.47;57.38;99505.78;12250822;19;20018;-82
2023/03/05 14:55:55;;;;;;;6.35;2.03;;;;;;;7.36;57.45;99492.91;12194314;19;20011;-82
2023/03/05 14:59:57;;;;;;;4.20;1.75;;;;;;;7.16;57.29;99491.31;12217784;19;20010;-82
2023/03/05 15:03:59;;;;;;;4.40;2.17;;;;;;;7.17;57.77;99475.69;12213618;19;20483;-83
2023/03/05 15:08:01;;;;;;;5.50;2.05;;;;;;;7.15;57.66;99475.94;12192858;19;20002;-82
2023/03/05 15:12:03;;;;;;;7.50;2.28;;;;;;;7.01;57.84;99466.25;12217018;19;20035;-82
2023/03/05 15:16:06;;;;;;;7.22;2.53;;;;;;;6.98;58.08;99470.31;12211159;19;20007;-82
2023/03/05 15:20:13;;;;;;;7.20;1.90;;;;;;;6.94;58.25;99465.53;12192775;19;20642;-81
2023/03/05 15:24:15;;;;;;;5.45;2.30;;;;;;;6.78;58.54;99454.19;12212246;19;20031;-80
2023/03/05 15:28:17;;;;;;;4.72;2.30;;;;;;;6.61;58.72;99451.28;12190766;19;20078;-81
2023/03/05 15:32:18;;;;;;;6.15;2.83;;;;;;;6.50;58.99;99446.59;12210212;19;20006;-81
2023/03/05 15:36:20;;;;;;;6.38;2.47;;;;;;;6.48;59.65;99448.72;12211792;19;20014;-81
2023/03/05 15:40:22;;;;;;;8.00;2.95;;;;;;;6.49;60.30;99438.63;12191193;19;20706;-81
2023/03/05 15:44:24;;;;;;;9.32;3.10;;;;;;;6.47;60.81;99438.00;12211398;19;20006;-81
2023/03/05 15:48:26;;;;;;;8.98;2.67;;;;;;;6.37;61.36;99430.38;12207985;19;20078;-82
2023/03/05 15:52:27;;;;;;;9.90;3.33;;;;;;;6.31;61.54;99426.66;12186063;19;20002;-81
2023/03/05 15:56:29;;;;;;;7.13;2.70;;;;;;;6.19;62.28;99424.91;12201435;19;20341;-81
2023/03/05 16:00:34;;;;;;;6.90;2.83;;;;;;;6.13;62.89;99432.16;12207572;19;20380;-82
2023/03/05 16:04:37;;;;;;;7.50;3.50;;;;;;;6.09;63.41;99420.00;12188309;19;20039;-81
2023/03/05 16:08:42;;;;;;;8.10;3.83;;;;;;;6.05;63.83;99419.63;12208314;19;20002;-82
2023/03/05 16:12:47;;;;;;;7.28;3.70;;;;;;;6.03;64.41;99412.72;12207817;19;20348;-81
2023/03/05 16:16:52;;;;;;;8.90;3.50;;;;;;;6.03;64.28;99399.03;12187793;19;20103;-81
2023/03/05 16:20:53;;;;;;;11.20;4.05;;;;;;;6.00;64.90;99404.97;12207658;19;20014;-82
2023/03/05 16:24:56;;;;;;;9.57;3.87;;;;;;;5.99;65.13;99403.31;12208860;19;20031;-81
2023/03/05 16:28:58;;;;;;;10.30;4.15;;;;;;;5.95;65.64;99402.94;12184455;19;20288;-81
2023/03/05 16:32:59;;;;;;;9.18;4.20;;;;;;;5.94;65.83;99396.59;12213561;19;20010;-81
2023/03/05 16:37:03;;;;;;;13.48;5.60;;;;;;;5.90;66.20;99391.81;12212233;19;20017;-81
2023/03/05 16:41:34;;;;;;;11.60;5.28;;;;;;;5.89;66.53;99388.25;12226604;19;20049;-81
2023/03/05 16:45:36;;;;;;;8.57;4.10;;;;;;;5.88;67.00;99385.72;12269339;19;20003;-83
2023/03/05 16:49:39;;;;;;;11.43;4.80;;;;;;;5.82;67.60;99387.47;12212648;19;20896;-81
2023/03/05 16:53:40;;;;;;;9.90;4.57;;;;;;;5.75;68.15;99380.44;12207735;19;20006;-81
2023/03/05 16:57:43;;;;;;;11.63;4.90;;;;;;;5.71;68.10;99380.91;12203678;19;20006;-82
2023/03/05 17:01:44;;;;;;;10.63;4.50;;;;;;;5.70;68.24;99389.31;12183630;19;20002;-81
2023/03/05 17:05:46;;;;;;;15.88;5.40;;;;;;;5.69;68.42;99387.66;12208999;19;20007;-82
2023/03/05 17:09:49;;;;;;;13.40;5.47;;;;;;;5.71;68.28;99385.50;12206319;19;20022;-81
2023/03/05 17:13:50;;;;;;;;;;;;;;;5.66;68.70;99386.19;12186515;19;20023;-81
2023/03/05 17:17:52;;;;;;;9.80;3.65;;;;;;;5.67;68.14;99384.31;12206979;19;20277;-82
2023/03/05 17:21:54;;;;;;;10.07;4.35;;;;;;;5.64;68.68;99379.28;12207634;19;20339;-81
2023/03/05 17:25:56;;;;;;;11.18;4.50;;;;;;;5.60;68.82;99378.91;12182839;19;20027;-81
2023/03/05 17:29:59;;;;;;;11.15;3.25;;;;;;;5.52;69.19;99381.13;12207063;19;20070;-81
2023/03/05 17:34:01;;;;;;;8.00;3.60;;;;;;;5.42;69.20;99370.72;12203499;19;20022;-84
2023/03/05 17:38:07;;;;;;;7.95;3.20;;;;;;;5.43;69.47;99372.38;12183649;19;20007;-81
2023/03/05 17:42:09;;;;;;;8.57;3.83;;;;;;;5.43;69.85;99367.75;12204440;19;20015;-80
2023/03/05 17:46:12;;;;;;;8.20;3.28;;;;;;;5.44;70.09;99369.44;12204230;19;20027;-81
2023/03/05 17:50:14;;;;;;;8.00;3.20;;;;;;;5.46;70.54;99367.28;12184900;19;20789;-81
2023/03/05 17:54:15;;;;;;;8.68;4.65;;;;;;;5.49;70.77;99368.75;12208373;19;20014;-81
2023/03/05 17:58:17;;;;;;;9.07;3.92;;;;;;;5.49;70.82;99366.84;12186403;19;20006;-81
2023/03/05 18:02:19;;;;;;;6.33;4.23;;;;;;;5.49;70.99;99363.28;12207769;19;20471;-81
2023/03/05 18:06:21;;;;;;;10.25;4.63;;;;;;;5.49;71.56;99361.38;12206311;19;20003;-81
2023/03/05 18:10:24;;;;;;;9.05;4.10;;;;;;;5.49;71.42;99361.38;12184869;19;19999;-81
2023/03/05 18:14:26;;;;;;;9.90;4.65;;;;;;;5.49;71.68;99361.38;12206152;19;20026;-82
2023/03/05 18:18:28;;;;;;;10.63;4.13;;;;;;;5.47;71.82;99352.59;12209820;19;20074;-81
2023/03/05 18:22:29;;;;;;;12.73;5.10;;;;;;;5.47;72.06;99347.13;12188897;19;20104;-80
2023/03/05 18:26:31;;;;;;;11.57;4.40;;;;;;;5.46;72.29;99347.34;12215778;19;20081;-80
2023/03/05 18:30:34;;;;;;;11.07;4.45;;;;;;;5.43;72.78;99351.34;12213030;19;20025;-81
2023/03/05 18:34:35;;;;;;;7.00;3.30;;;;;;;5.41;73.07;99337.09;12193993;19;20017;-82
2023/03/05 18:38:37;;;;;;;17.33;6.15;;;;;;;5.38;72.70;99332.06;12214139;19;20826;-81
2023/03/05 18:42:39;;;;;;;15.02;6.85;;;;;;;5.35;72.95;99331.69;12214860;19;20094;-81
2023/03/05 18:46:41;;;;;;;14.43;6.70;;;;;;;5.36;72.65;99330.66;12197592;19;20468;-81
2023/03/05 18:50:44;;;;;;;14.20;6.78;;;;;;;5.36;73.23;99326.00;12213093;19;20013;-81
2023/03/05 18:54:45;;;;;;;14.52;6.20;;;;;;;5.36;73.38;99325.19;12206802;19;20501;-81